Time;durP1;ratioP1;P1;durP2;ratioP2;P2;SDS_P1;SDS_P2;PMS_P1;PMS_P2;Temp;Humidity;BMP_temperature;BMP_pressure;BME280_temperature;BME280_humidity;BME280_pressure;Samples;Min_cycle;Max_cycle;Signal;HPM_P1;HPM_P2
2022/10/13 01:01:18;;;;;;;17.90;7.00;;;14.60;96.90;;;;;;4993424;28;20205;-73
2022/10/13 01:03:47;;;;;;;20.17;7.70;;;14.50;96.90;;;;;;5006864;28;20287;-73
2022/10/13 01:06:15;;;;;;;15.70;6.50;;;14.50;97.00;;;;;;5008889;28;20225;-73
2022/10/13 01:08:43;;;;;;;15.93;7.13;;;14.50;97.00;;;;;;5008296;28;20195;-73
2022/10/13 01:11:36;;;;;;;16.33;6.17;;;14.60;97.10;;;;;;5010253;28;20219;-73
2022/10/13 01:14:11;;;;;;;10.23;5.10;;;14.60;97.10;;;;;;5008645;28;20198;-73
2022/10/13 01:16:48;;;;;;;9.50;4.80;;;14.60;97.00;;;;;;5008271;28;20197;-73
2022/10/13 01:19:51;;;;;;;11.27;6.27;;;14.60;97.00;;;;;;5011191;28;20238;-73
2022/10/13 01:22:37;;;;;;;12.37;6.37;;;14.60;97.00;;;;;;5011164;28;20298;-74
2022/10/13 01:25:18;;;;;;;9.90;5.80;;;14.60;97.00;;;;;;5007989;28;20840;-73
2022/10/13 01:28:02;;;;;;;10.60;5.00;;;14.50;97.00;;;;;;5010057;28;20813;-73
2022/10/13 01:30:37;;;;;;;7.87;4.47;;;14.50;97.00;;;;;;5009352;28;20630;-73
2022/10/13 01:33:15;;;;;;;10.40;6.23;;;14.50;97.10;;;;;;5009909;28;20218;-73
2022/10/13 01:35:53;;;;;;;10.40;5.83;;;14.50;97.10;;;;;;5010593;28;20274;-72
2022/10/13 01:38:29;;;;;;;11.13;5.70;;;14.40;97.20;;;;;;5009621;28;20198;-72
2022/10/13 01:41:05;;;;;;;10.33;5.60;;;14.40;97.20;;;;;;5010278;28;20585;-73
2022/10/13 01:43:39;;;;;;;8.80;5.23;;;14.40;97.20;;;;;;5008527;28;20246;-73
2022/10/13 01:46:13;;;;;;;9.13;4.53;;;14.40;97.20;;;;;;5008820;28;20210;-73
2022/10/13 01:48:43;;;;;;;11.23;5.10;;;14.40;97.20;;;;;;5010130;28;20204;-73
2022/10/13 01:51:16;;;;;;;9.17;4.80;;;14.40;97.20;;;;;;5008830;28;20261;-72
2022/10/13 01:53:46;;;;;;;11.10;5.70;;;14.40;97.20;;;;;;5007333;28;20207;-74
2022/10/13 01:56:13;;;;;;;6.93;3.90;;;14.30;97.20;;;;;;5008062;28;20591;-73
2022/10/13 01:58:42;;;;;;;7.60;4.47;;;14.30;97.30;;;;;;5007699;28;20195;-73
2022/10/13 02:01:32;;;;;;;9.93;5.57;;;14.30;97.30;;;;;;5009862;28;20226;-73
2022/10/13 02:04:12;;;;;;;13.70;6.03;;;14.30;97.40;;;;;;5008360;28;20193;-73
2022/10/13 02:06:45;;;;;;;8.70;4.93;;;14.30;97.50;;;;;;5007636;28;20234;-73
2022/10/13 02:09:19;;;;;;;7.83;4.60;;;14.30;97.50;;;;;;5008330;28;20203;-73
2022/10/13 02:11:54;;;;;;;7.47;4.03;;;14.30;97.60;;;;;;5009009;28;20292;-73
2022/10/13 02:14:26;;;;;;;7.43;4.27;;;14.30;97.90;;;;;;5007013;28;20197;-72
2022/10/13 02:16:55;;;;;;;10.93;4.97;;;14.30;97.50;;;;;;5007493;28;20190;-73
2022/10/13 02:19:23;;;;;;;7.50;4.60;;;14.30;97.60;;;;;;5009172;28;20195;-73
2022/10/13 02:21:52;;;;;;;9.93;5.10;;;14.30;97.70;;;;;;5008316;28;20230;-72
2022/10/13 02:24:22;;;;;;;10.87;5.50;;;14.30;97.70;;;;;;5007677;28;20660;-73
2022/10/13 02:26:50;;;;;;;13.43;6.27;;;14.20;97.90;;;;;;5008012;28;20222;-74
2022/10/13 02:29:19;;;;;;;10.43;6.30;;;14.20;97.80;;;;;;5007486;28;20535;-75
2022/10/13 02:31:47;;;;;;;13.20;6.90;;;14.20;97.90;;;;;;5006849;28;20240;-72
2022/10/13 02:34:16;;;;;;;11.83;6.70;;;14.10;98.00;;;;;;5008280;28;20198;-72
2022/10/13 02:36:46;;;;;;;13.73;6.07;;;14.10;98.10;;;;;;5007514;28;20670;-73
2022/10/13 02:39:14;;;;;;;14.17;7.10;;;14.10;98.20;;;;;;5008989;28;20302;-73
2022/10/13 02:41:41;;;;;;;17.03;8.23;;;14.10;98.30;;;;;;5007789;28;20284;-73
2022/10/13 02:44:09;;;;;;;14.00;7.33;;;14.00;98.30;;;;;;5005679;28;20203;-72
2022/10/13 02:46:41;;;;;;;10.63;5.93;;;14.00;98.40;;;;;;5007272;28;20221;-73
2022/10/13 02:49:09;;;;;;;12.17;6.17;;;14.00;98.40;;;;;;5008204;28;20255;-73
2022/10/13 02:51:38;;;;;;;10.40;5.60;;;14.10;98.40;;;;;;5005686;28;20198;-73
2022/10/13 02:54:05;;;;;;;15.77;7.13;;;14.10;98.40;;;;;;5008845;28;20191;-73
2022/10/13 02:56:32;;;;;;;13.43;6.77;;;14.10;98.40;;;;;;5007280;28;20298;-72
2022/10/13 02:59:00;;;;;;;17.20;8.37;;;14.10;98.50;;;;;;5014129;28;20202;-72
2022/10/13 03:01:27;;;;;;;16.57;8.27;;;14.10;98.60;;;;;;5028469;28;20209;-74
2022/10/13 03:03:54;;;;;;;11.53;6.60;;;14.00;98.60;;;;;;5031879;28;20199;-72
2022/10/13 03:06:22;;;;;;;13.77;7.83;;;14.00;98.60;;;;;;5027302;28;20202;-73
2022/10/13 03:08:51;;;;;;;11.73;7.13;;;14.10;98.70;;;;;;5013259;28;20226;-73
2022/10/13 03:11:18;;;;;;;10.33;6.20;;;14.00;98.70;;;;;;5014269;28;20232;-72
2022/10/13 03:13:47;;;;;;;15.50;7.80;;;14.00;98.70;;;;;;5014177;28;20534;-72
2022/10/13 03:16:14;;;;;;;13.97;7.10;;;14.00;98.80;;;;;;5014882;28;20218;-72
2022/10/13 03:18:41;;;;;;;14.63;8.13;;;14.00;98.90;;;;;;5009602;28;20569;-72
2022/10/13 03:21:10;;;;;;;14.50;7.60;;;14.00;98.90;;;;;;5014954;28;20663;-72
2022/10/13 03:23:39;;;;;;;10.43;6.40;;;14.00;99.00;;;;;;5013491;28;20204;-72
2022/10/13 03:26:08;;;;;;;9.13;6.00;;;14.00;99.00;;;;;;5014628;28;20324;-72
2022/10/13 03:28:36;;;;;;;11.47;5.90;;;14.00;99.00;;;;;;5013933;28;20202;-72
2022/10/13 03:31:04;;;;;;;9.53;5.70;;;14.00;99.00;;;;;;5014913;28;20673;-72
2022/10/13 03:33:31;;;;;;;10.13;6.80;;;14.00;98.90;;;;;;5015116;28;20283;-73
2022/10/13 03:36:00;;;;;;;14.23;7.43;;;14.00;98.90;;;;;;5013721;28;20221;-72
2022/10/13 03:38:28;;;;;;;10.33;6.37;;;14.00;99.00;;;;;;5012654;28;20209;-72
2022/10/13 03:40:55;;;;;;;13.83;8.20;;;14.00;99.00;;;;;;5014232;28;20193;-73
2022/10/13 03:43:25;;;;;;;14.33;8.10;;;14.10;99.10;;;;;;5014800;28;20285;-73
2022/10/13 03:45:56;;;;;;;9.67;5.80;;;14.00;99.00;;;;;;5014625;28;20245;-72
2022/10/13 03:48:24;;;;;;;14.20;7.40;;;14.00;99.10;;;;;;5014513;28;20243;-73
2022/10/13 03:50:51;;;;;;;16.73;7.43;;;14.00;99.10;;;;;;5015204;28;20279;-73
2022/10/13 03:53:18;;;;;;;12.70;7.03;;;14.10;99.20;;;;;;5014457;28;20232;-72
2022/10/13 03:55:50;;;;;;;10.50;6.60;;;14.00;99.20;;;;;;5014430;28;20681;-72
2022/10/13 03:58:17;;;;;;;15.33;7.30;;;14.00;99.20;;;;;;5014505;28;20197;-73
2022/10/13 04:00:47;;;;;;;11.33;6.67;;;14.10;99.30;;;;;;5015579;28;20615;-72
2022/10/13 04:03:15;;;;;;;13.70;7.23;;;14.00;99.20;;;;;;5012859;28;20313;-73
2022/10/13 04:05:43;;;;;;;13.23;7.57;;;14.10;99.30;;;;;;5015494;28;20348;-74
2022/10/13 04:08:11;;;;;;;12.07;7.03;;;14.10;99.30;;;;;;5011868;28;20286;-73
2022/10/13 04:10:38;;;;;;;13.60;7.07;;;14.10;99.20;;;;;;5015282;28;20253;-73
2022/10/13 04:13:06;;;;;;;17.37;7.57;;;14.10;99.30;;;;;;5011798;28;20205;-73
2022/10/13 04:15:36;;;;;;;18.40;8.27;;;14.10;99.20;;;;;;5009348;28;20292;-73
2022/10/13 04:18:06;;;;;;;14.03;7.93;;;14.10;99.30;;;;;;5008075;28;20206;-73
2022/10/13 04:20:38;;;;;;;14.70;8.40;;;14.00;99.30;;;;;;5009640;28;20193;-73
2022/10/13 04:23:06;;;;;;;13.07;7.57;;;14.00;99.30;;;;;;5009799;28;20577;-73
2022/10/13 04:25:36;;;;;;;14.23;7.87;;;14.00;99.40;;;;;;5009606;28;20220;-72
2022/10/13 04:28:03;;;;;;;16.80;8.00;;;14.00;99.40;;;;;;5010273;28;20283;-72
2022/10/13 04:30:33;;;;;;;16.20;8.60;;;14.00;99.40;;;;;;5010572;28;20253;-72
2022/10/13 04:33:01;;;;;;;16.13;8.57;;;14.10;99.50;;;;;;5009949;28;20226;-72
2022/10/13 04:35:30;;;;;;;15.20;8.13;;;14.00;99.40;;;;;;5011426;28;20206;-72
2022/10/13 04:37:57;;;;;;;19.50;7.63;;;14.00;99.50;;;;;;5006525;28;20206;-72
2022/10/13 04:40:25;;;;;;;13.37;7.43;;;14.00;99.50;;;;;;5010083;28;20225;-73
2022/10/13 04:42:52;;;;;;;14.50;7.97;;;14.00;99.50;;;;;;5009988;28;20689;-73
2022/10/13 04:45:20;;;;;;;17.10;8.57;;;14.00;99.50;;;;;;5011035;28;20666;-74
2022/10/13 04:47:49;;;;;;;12.37;7.73;;;14.00;99.50;;;;;;5008373;28;20580;-73
2022/10/13 04:50:18;;;;;;;12.47;6.77;;;14.00;99.50;;;;;;5009875;28;20297;-73
2022/10/13 04:52:49;;;;;;;10.17;6.27;;;14.00;99.50;;;;;;5010064;28;20675;-74
2022/10/13 04:55:16;;;;;;;9.93;5.70;;;14.00;99.40;;;;;;5009611;28;20203;-73
2022/10/13 04:57:44;;;;;;;9.53;5.43;;;14.00;99.40;;;;;;5007945;28;20289;-73
2022/10/13 05:00:12;;;;;;;16.10;7.90;;;14.00;99.40;;;;;;5010000;28;20221;-73
2022/10/13 05:02:39;;;;;;;11.60;7.00;;;14.00;99.30;;;;;;5008815;28;20650;-73
2022/10/13 05:05:08;;;;;;;12.07;6.53;;;14.00;99.30;;;;;;5010950;28;20666;-74
2022/10/13 05:07:35;;;;;;;8.53;5.30;;;14.00;99.40;;;;;;5008439;28;20237;-73
2022/10/13 05:10:04;;;;;;;8.03;4.47;;;14.00;99.40;;;;;;5008387;28;20560;-73
2022/10/13 05:12:31;;;;;;;5.97;4.30;;;14.00;99.30;;;;;;5009751;28;20253;-74
2022/10/13 05:14:59;;;;;;;6.17;3.83;;;14.00;99.30;;;;;;5007834;28;20288;-74
2022/10/13 05:17:28;;;;;;;6.97;4.80;;;14.00;99.30;;;;;;5007959;28;20228;-73
2022/10/13 05:19:56;;;;;;;5.80;3.90;;;14.00;99.30;;;;;;5010985;28;20721;-73
2022/10/13 05:22:23;;;;;;;7.87;4.60;;;14.00;99.30;;;;;;5009668;28;20221;-74
2022/10/13 05:24:50;;;;;;;7.20;4.90;;;14.00;99.30;;;;;;5008464;28;20205;-73
2022/10/13 05:27:19;;;;;;;10.73;5.93;;;14.00;99.30;;;;;;5008448;28;20710;-74
2022/10/13 05:29:46;;;;;;;7.13;5.00;;;14.00;99.20;;;;;;5008837;28;20205;-73
2022/10/13 05:32:13;;;;;;;5.37;4.50;;;14.00;99.20;;;;;;5008896;28;20190;-74
2022/10/13 05:34:41;;;;;;;7.87;5.13;;;14.00;99.20;;;;;;5010289;28;20210;-73
2022/10/13 05:37:08;;;;;;;12.87;6.07;;;14.00;99.10;;;;;;5007718;28;20199;-73
2022/10/13 05:39:35;;;;;;;10.10;5.90;;;14.00;99.20;;;;;;5006485;28;20230;-73
2022/10/13 05:42:03;;;;;;;14.37;6.70;;;14.00;99.10;;;;;;5008022;28;20283;-74
2022/10/13 05:44:31;;;;;;;20.17;7.63;;;14.00;99.10;;;;;;5008050;28;20288;-74
2022/10/13 05:46:59;;;;;;;15.43;6.73;;;13.90;99.10;;;;;;5006067;28;20717;-74
2022/10/13 05:49:26;;;;;;;11.87;6.90;;;13.90;99.10;;;;;;5010398;28;20199;-73
2022/10/13 05:51:57;;;;;;;15.20;6.87;;;13.90;99.20;;;;;;5009683;28;20260;-73
2022/10/13 05:54:29;;;;;;;10.03;5.83;;;13.80;99.20;;;;;;5007026;28;20193;-74
2022/10/13 05:57:00;;;;;;;17.23;6.13;;;13.80;99.20;;;;;;5009037;28;20236;-73
2022/10/13 05:59:34;;;;;;;9.37;5.40;;;13.80;99.20;;;;;;5007369;28;20825;-73
2022/10/13 06:02:03;;;;;;;15.07;6.00;;;13.90;99.20;;;;;;5023114;28;20237;-73
2022/10/13 06:04:35;;;;;;;17.50;7.30;;;13.90;99.20;;;;;;5003633;28;20722;-74
2022/10/13 06:07:03;;;;;;;16.10;6.97;;;13.90;99.20;;;;;;5005878;28;20292;-73
2022/10/13 06:09:34;;;;;;;13.30;6.07;;;13.90;99.20;;;;;;5007125;28;20685;-73
2022/10/13 06:12:02;;;;;;;9.00;5.30;;;13.80;99.20;;;;;;5006247;28;20654;-73
2022/10/13 06:14:29;;;;;;;8.33;5.40;;;13.90;99.20;;;;;;5006450;28;20230;-73
2022/10/13 06:16:57;;;;;;;7.17;5.23;;;13.90;99.20;;;;;;5006346;28;20293;-74
2022/10/13 06:19:25;;;;;;;7.77;5.07;;;13.90;99.20;;;;;;5005553;28;20248;-74
2022/10/13 06:21:52;;;;;;;14.43;6.27;;;13.90;99.10;;;;;;5006744;28;20278;-73
2022/10/13 06:24:20;;;;;;;15.17;7.17;;;13.90;99.10;;;;;;5007240;28;20206;-74
2022/10/13 06:26:47;;;;;;;8.97;5.40;;;13.80;99.10;;;;;;5006236;28;20713;-74
2022/10/13 06:29:14;;;;;;;10.37;5.90;;;13.80;99.20;;;;;;5009223;28;20300;-74
2022/10/13 06:31:41;;;;;;;10.90;6.43;;;13.80;99.30;;;;;;5002257;28;21061;-74
2022/10/13 06:34:11;;;;;;;11.37;6.47;;;13.80;99.30;;;;;;5008003;28;20187;-74
2022/10/13 06:36:44;;;;;;;11.40;6.17;;;13.80;99.30;;;;;;5020212;28;20205;-74
2022/10/13 06:39:13;;;;;;;12.90;6.10;;;13.80;99.30;;;;;;5006926;28;20197;-72
2022/10/13 06:41:40;;;;;;;12.43;6.40;;;13.80;99.30;;;;;;5008656;28;20200;-73
2022/10/13 06:44:07;;;;;;;15.23;6.63;;;13.80;99.30;;;;;;5007219;28;20220;-74
2022/10/13 06:46:35;;;;;;;10.60;6.10;;;13.80;99.30;;;;;;5005789;28;20201;-74
2022/10/13 06:49:02;;;;;;;14.30;7.00;;;13.80;99.30;;;;;;5007558;28;20210;-74
2022/10/13 06:51:31;;;;;;;10.90;6.63;;;13.70;99.40;;;;;;5008496;28;20229;-73
2022/10/13 06:53:58;;;;;;;13.30;6.50;;;13.70;99.40;;;;;;5006704;28;20223;-75
2022/10/13 06:56:26;;;;;;;15.33;7.63;;;13.70;99.50;;;;;;5006054;28;20661;-73
2022/10/13 06:58:53;;;;;;;13.07;7.17;;;13.70;99.40;;;;;;5008985;28;20201;-73
2022/10/13 07:01:20;;;;;;;20.77;7.93;;;13.70;99.40;;;;;;5005968;28;20279;-73
2022/10/13 07:03:49;;;;;;;20.83;8.47;;;13.60;99.50;;;;;;5007549;28;20297;-73
2022/10/13 07:06:19;;;;;;;19.07;8.57;;;13.60;99.50;;;;;;5006441;28;20673;-73
2022/10/13 07:08:47;;;;;;;13.63;6.97;;;13.50;99.40;;;;;;5006247;28;20223;-73
2022/10/13 07:11:16;;;;;;;14.17;7.57;;;13.50;99.50;;;;;;5008612;28;20649;-72
2022/10/13 07:13:43;;;;;;;10.47;6.23;;;13.50;99.60;;;;;;5006369;28;20640;-73
2022/10/13 07:16:13;;;;;;;9.90;6.20;;;13.60;99.60;;;;;;5007089;28;20216;-73
2022/10/13 07:18:40;;;;;;;16.67;7.37;;;13.60;99.60;;;;;;5006532;28;21311;-72
2022/10/13 07:21:07;;;;;;;20.10;8.07;;;13.60;99.60;;;;;;5009111;28;20638;-73
2022/10/13 07:23:35;;;;;;;23.67;9.20;;;13.60;99.50;;;;;;5007970;28;20249;-73
2022/10/13 07:26:07;;;;;;;18.13;8.23;;;13.60;99.40;;;;;;5006849;28;20246;-73
2022/10/13 07:28:34;;;;;;;16.37;7.93;;;13.60;99.50;;;;;;5007000;28;20211;-73
2022/10/13 07:31:09;;;;;;;16.33;8.37;;;13.50;99.40;;;;;;5006598;28;20207;-73
2022/10/13 07:33:38;;;;;;;17.90;8.13;;;13.50;99.40;;;;;;5006823;28;20712;-73
2022/10/13 07:36:05;;;;;;;12.73;7.27;;;13.50;99.40;;;;;;5006934;28;20192;-73
2022/10/13 07:38:32;;;;;;;24.90;7.50;;;13.50;99.50;;;;;;5005759;28;20637;-74
2022/10/13 07:41:01;;;;;;;15.67;7.27;;;13.50;99.40;;;;;;5007964;28;20204;-73
2022/10/13 07:43:30;;;;;;;21.27;7.97;;;13.60;99.50;;;;;;5006200;28;20275;-74
2022/10/13 07:45:58;;;;;;;17.27;8.60;;;13.60;99.40;;;;;;5013872;28;20456;-74
2022/10/13 07:48:28;;;;;;;16.00;7.83;;;13.60;99.30;;;;;;5023752;28;20216;-73
2022/10/13 07:50:57;;;;;;;17.00;8.00;;;13.60;99.30;;;;;;5029543;28;20196;-76
2022/10/13 07:53:24;;;;;;;18.33;8.50;;;13.60;99.30;;;;;;5018309;28;20196;-74
2022/10/13 07:55:52;;;;;;;17.97;8.30;;;13.70;99.30;;;;;;5008279;28;20207;-74
2022/10/13 07:58:19;;;;;;;15.67;7.40;;;13.70;99.10;;;;;;5010617;28;20200;-74
2022/10/13 08:00:56;;;;;;;15.50;7.40;;;13.70;99.10;;;;;;5010230;28;20215;-74
2022/10/13 08:03:25;;;;;;;18.47;7.63;;;13.70;99.10;;;;;;5010809;28;20235;-74
2022/10/13 08:05:53;;;;;;;13.93;7.83;;;13.80;99.20;;;;;;5012498;28;20213;-74
2022/10/13 08:08:20;;;;;;;24.63;8.03;;;13.80;99.10;;;;;;5010868;28;20213;-73
2022/10/13 08:10:47;;;;;;;17.93;7.80;;;13.90;99.00;;;;;;5012609;28;20232;-74
2022/10/13 08:13:15;;;;;;;21.17;7.40;;;13.90;98.80;;;;;;5008771;28;20209;-74
2022/10/13 08:15:43;;;;;;;18.07;7.00;;;13.90;98.80;;;;;;5010730;28;20542;-74
2022/10/13 08:18:13;;;;;;;25.13;9.83;;;13.90;98.80;;;;;;5010206;28;20192;-74
2022/10/13 08:20:41;;;;;;;19.40;8.17;;;14.00;98.90;;;;;;5009910;28;20205;-74
2022/10/13 08:23:09;;;;;;;15.00;7.00;;;14.00;98.80;;;;;;5008706;28;20658;-73
2022/10/13 08:25:40;;;;;;;17.40;6.77;;;14.00;98.50;;;;;;5010964;28;20196;-73
2022/10/13 08:28:16;;;;;;;13.80;6.57;;;14.10;98.20;;;;;;5009879;28;20210;-74
2022/10/13 08:30:44;;;;;;;13.70;6.13;;;14.10;98.40;;;;;;5009540;28;20774;-74
2022/10/13 08:33:13;;;;;;;11.10;5.90;;;14.20;98.10;;;;;;5008852;28;20740;-74
2022/10/13 08:35:41;;;;;;;18.30;6.60;;;14.20;98.00;;;;;;5008857;28;20208;-74
2022/10/13 08:38:09;;;;;;;19.30;6.20;;;14.30;97.90;;;;;;5008823;28;20205;-73
2022/10/13 08:40:38;;;;;;;14.83;6.63;;;14.30;97.60;;;;;;5009893;28;20204;-74
2022/10/13 08:43:07;;;;;;;17.60;6.57;;;14.30;97.10;;;;;;5008869;28;20215;-72
2022/10/13 08:45:36;;;;;;;12.67;5.57;;;14.30;96.80;;;;;;5008944;28;20248;-74
2022/10/13 08:48:09;;;;;;;15.60;6.10;;;14.40;96.60;;;;;;5008443;28;20222;-72
2022/10/13 08:50:42;;;;;;;11.73;5.13;;;14.40;96.20;;;;;;5010025;28;20676;-74
2022/10/13 08:53:13;;;;;;;9.57;4.73;;;14.40;95.90;;;;;;5010239;28;20190;-73
2022/10/13 08:55:49;;;;;;;9.57;4.40;;;14.40;95.90;;;;;;5010124;28;20200;-72
2022/10/13 08:58:21;;;;;;;11.60;5.77;;;14.40;95.40;;;;;;5009725;28;20272;-73
2022/10/13 09:00:48;;;;;;;15.30;5.20;;;14.40;95.10;;;;;;5009656;28;20282;-72
2022/10/13 09:03:24;;;;;;;10.50;4.50;;;14.50;95.20;;;;;;5007416;28;20234;-73
2022/10/13 09:06:03;;;;;;;8.27;4.33;;;14.50;95.30;;;;;;5023632;28;20219;-74
2022/10/13 09:08:38;;;;;;;8.90;4.50;;;14.50;95.20;;;;;;5007828;28;20563;-73
2022/10/13 09:11:05;;;;;;;9.43;4.77;;;14.60;95.20;;;;;;5009822;28;20202;-72
2022/10/13 09:13:32;;;;;;;9.00;4.07;;;14.60;95.10;;;;;;5009357;28;20206;-73
2022/10/13 09:16:00;;;;;;;8.50;4.43;;;14.60;95.00;;;;;;5008546;28;20209;-73
2022/10/13 09:18:30;;;;;;;11.77;4.50;;;14.70;94.90;;;;;;5008153;28;20202;-73
2022/10/13 09:21:18;;;;;;;17.73;4.67;;;14.70;94.80;;;;;;5007608;28;20305;-73
2022/10/13 09:23:45;;;;;;;8.27;4.30;;;14.80;94.30;;;;;;5011047;28;20203;-74
2022/10/13 09:26:19;;;;;;;12.00;4.10;;;14.80;94.10;;;;;;5009095;28;20211;-74
2022/10/13 09:28:48;;;;;;;13.67;4.33;;;14.90;93.80;;;;;;5009564;28;20211;-72
2022/10/13 09:31:19;;;;;;;9.67;4.50;;;14.90;93.50;;;;;;5008790;28;20222;-71
2022/10/13 09:33:56;;;;;;;7.20;3.90;;;14.90;93.40;;;;;;5007603;28;20305;-72
2022/10/13 09:36:25;;;;;;;7.47;3.20;;;14.90;93.50;;;;;;5002373;28;20256;-73
2022/10/13 09:39:07;;;;;;;7.13;3.57;;;15.00;93.70;;;;;;5008417;28;20345;-72
2022/10/13 09:41:36;;;;;;;10.53;4.50;;;15.00;93.60;;;;;;5005531;28;20281;-73
2022/10/13 09:44:12;;;;;;;12.20;4.33;;;15.10;93.40;;;;;;5007078;28;20219;-73
2022/10/13 09:46:50;;;;;;;9.87;3.90;;;15.20;93.20;;;;;;5006785;28;20195;-72
2022/10/13 09:49:31;;;;;;;10.10;3.67;;;15.20;92.80;;;;;;5008773;28;20203;-73
2022/10/13 09:52:04;;;;;;;6.20;3.17;;;15.30;92.50;;;;;;5006092;28;20195;-74
2022/10/13 09:54:43;;;;;;;11.33;3.57;;;15.30;92.40;;;;;;5008038;28;20227;-73
2022/10/13 09:57:17;;;;;;;8.13;3.70;;;15.40;92.30;;;;;;5007658;28;20230;-74
2022/10/13 09:59:49;;;;;;;6.57;3.67;;;15.50;92.40;;;;;;5007566;28;20191;-72
2022/10/13 10:02:24;;;;;;;7.53;3.63;;;15.70;92.10;;;;;;5008272;28;20233;-73
2022/10/13 10:04:53;;;;;;;8.00;3.33;;;15.90;91.60;;;;;;5007974;28;20206;-72
2022/10/13 10:07:27;;;;;;;7.17;3.00;;;16.90;91.30;;;;;;5008836;28;20266;-72
2022/10/13 10:10:03;;;;;;;8.27;3.60;;;18.50;89.90;;;;;;5006167;28;20207;-74
2022/10/13 10:12:33;;;;;;;3.22;2.67;;;19.90;85.00;;;;;;5006162;28;20202;-74
2022/10/13 10:15:01;;;;;;;7.13;2.88;;;21.10;82.20;;;;;;5009221;28;20294;-71
2022/10/13 10:17:34;;;;;;;15.18;3.53;;;22.40;78.10;;;;;;5007659;28;20242;-72
2022/10/13 10:20:15;;;;;;;11.80;3.53;;;23.10;70.80;;;;;;5007286;28;20274;-72
2022/10/13 10:22:52;;;;;;;5.03;3.05;;;22.80;67.90;;;;;;5007825;28;20211;-72
2022/10/13 10:25:28;;;;;;;8.38;3.33;;;21.80;67.60;;;;;;5007657;28;20195;-72
2022/10/13 10:28:16;;;;;;;7.97;3.05;;;21.10;68.90;;;;;;5007583;28;20194;-73
2022/10/13 10:30:48;;;;;;;4.70;3.10;;;20.30;68.90;;;;;;5007685;28;20195;-72
2022/10/13 10:33:20;;;;;;;9.52;2.72;;;19.50;70.50;;;;;;5007263;28;20203;-71
2022/10/13 10:35:52;;;;;;;5.43;2.55;;;18.80;71.70;;;;;;5006492;28;20203;-73
2022/10/13 10:38:30;;;;;;;5.90;3.05;;;18.40;73.60;;;;;;5007078;28;20202;-73
2022/10/13 10:41:07;;;;;;;4.18;2.53;;;18.10;75.30;;;;;;5007130;28;20295;-72
2022/10/13 10:43:49;;;;;;;8.07;2.85;;;17.90;76.80;;;;;;5023474;28;20696;-73
2022/10/13 10:46:20;;;;;;;11.43;3.20;;;17.70;76.80;;;;;;5008312;28;20187;-73
2022/10/13 10:48:49;;;;;;;5.57;2.57;;;17.60;76.20;;;;;;5008569;28;20202;-73
2022/10/13 10:51:17;;;;;;;10.17;2.80;;;17.40;76.40;;;;;;5006095;28;20680;-73
2022/10/13 10:54:05;;;;;;;11.17;2.97;;;17.20;76.20;;;;;;5008204;28;20211;-74
2022/10/13 10:56:35;;;;;;;7.87;3.27;;;17.00;76.40;;;;;;5006177;28;20215;-73
2022/10/13 10:59:18;;;;;;;6.37;2.60;;;16.90;76.80;;;;;;5006455;28;20197;-73
2022/10/13 11:01:54;;;;;;;5.33;2.37;;;16.80;77.20;;;;;;5005809;28;20264;-72
2022/10/13 11:04:36;;;;;;;7.60;2.90;;;16.80;77.50;;;;;;5001456;28;20860;-72
2022/10/13 11:07:04;;;;;;;6.03;2.80;;;16.70;77.80;;;;;;5006381;28;20203;-72
2022/10/13 11:10:09;;;;;;;8.70;3.10;;;16.70;77.70;;;;;;5008300;28;20211;-73
2022/10/13 11:13:09;;;;;;;6.37;2.93;;;16.60;77.80;;;;;;5004461;28;20230;-72
2022/10/13 11:15:46;;;;;;;7.30;3.00;;;16.60;77.70;;;;;;5005784;28;20193;-73
2022/10/13 11:18:55;;;;;;;3.27;2.33;;;16.60;77.30;;;;;;5006301;28;20196;-73
2022/10/13 11:22:21;;;;;;;4.60;2.70;;;16.60;77.70;;;;;;5006341;28;20200;-72
2022/10/13 11:25:07;;;;;;;11.30;3.00;;;16.50;78.00;;;;;;5011432;28;20733;-73
2022/10/13 11:27:40;;;;;;;5.13;2.70;;;16.50;77.60;;;;;;5009577;28;20191;-72
2022/10/13 11:30:56;;;;;;;6.60;2.83;;;16.50;77.80;;;;;;5011953;28;20211;-72
2022/10/13 11:33:51;;;;;;;6.57;2.97;;;16.50;78.10;;;;;;5011044;28;20205;-73
2022/10/13 11:36:52;;;;;;;8.10;2.90;;;16.50;77.80;;;;;;5009459;28;20623;-71
2022/10/13 11:40:00;;;;;;;7.03;2.63;;;16.50;78.40;;;;;;5009890;28;20210;-70
2022/10/13 11:42:58;;;;;;;9.67;3.20;;;16.50;78.80;;;;;;5009011;28;20507;-72
2022/10/13 11:45:41;;;;;;;14.47;3.90;;;16.60;78.70;;;;;;4990147;28;20203;-73
2022/10/13 11:48:52;;;;;;;6.93;3.03;;;16.60;79.00;;;;;;5009567;28;20198;-73
2022/10/13 11:51:36;;;;;;;7.23;2.97;;;16.50;78.80;;;;;;5010057;28;20524;-73
2022/10/13 11:54:20;;;;;;;8.07;3.20;;;16.60;79.10;;;;;;5009695;28;20671;-72
2022/10/13 11:56:50;;;;;;;8.87;3.03;;;16.60;79.10;;;;;;5009059;28;20195;-72
2022/10/13 11:59:23;;;;;;;4.97;2.97;;;16.60;79.20;;;;;;5009623;28;20311;-72
2022/10/13 12:01:54;;;;;;;8.73;3.00;;;16.60;79.20;;;;;;5009257;28;21136;-74
2022/10/13 12:04:25;;;;;;;7.93;3.30;;;16.60;79.30;;;;;;5007690;28;20291;-71
2022/10/13 12:06:59;;;;;;;5.83;3.10;;;16.70;79.50;;;;;;5010558;28;20198;-72
2022/10/13 12:09:27;;;;;;;7.23;3.30;;;16.70;79.70;;;;;;5008931;28;20207;-72
2022/10/13 12:12:00;;;;;;;6.50;2.30;;;16.70;79.70;;;;;;5007654;28;20196;-74
2022/10/13 12:14:32;;;;;;;9.83;3.73;;;16.80;80.00;;;;;;5010566;28;20212;-72
2022/10/13 12:17:00;;;;;;;6.17;2.83;;;16.80;79.80;;;;;;5007399;28;20238;-71
2022/10/13 12:19:30;;;;;;;7.33;3.20;;;16.80;79.60;;;;;;5010087;28;20265;-72
2022/10/13 12:21:59;;;;;;;7.87;3.23;;;16.80;78.90;;;;;;5009915;28;20200;-74
2022/10/13 12:24:28;;;;;;;5.23;2.90;;;16.80;78.30;;;;;;5009263;28;20200;-72
2022/10/13 12:26:56;;;;;;;8.17;3.33;;;16.80;77.80;;;;;;5009697;28;20208;-73
2022/10/13 12:29:26;;;;;;;12.33;2.63;;;16.90;78.00;;;;;;5013572;28;20200;-71
2022/10/13 12:31:57;;;;;;;5.67;2.70;;;17.00;77.90;;;;;;5013009;28;20735;-72
2022/10/13 12:34:26;;;;;;;6.37;3.10;;;17.20;77.60;;;;;;5011979;28;20220;-73
2022/10/13 12:36:59;;;;;;;5.20;3.07;;;17.40;76.70;;;;;;5012572;28;20291;-72
2022/10/13 12:39:28;;;;;;;5.60;3.07;;;17.50;76.60;;;;;;5010518;28;20603;-71
2022/10/13 12:41:57;;;;;;;3.47;2.63;;;17.60;76.00;;;;;;5010652;28;20198;-70
2022/10/13 12:44:26;;;;;;;4.63;2.87;;;17.70;75.50;;;;;;5009767;28;20229;-72
2022/10/13 12:46:57;;;;;;;4.30;2.60;;;17.80;74.60;;;;;;5008221;28;20210;-70
2022/10/13 12:49:26;;;;;;;9.57;3.35;;;17.90;74.80;;;;;;5009091;28;20218;-73
2022/10/13 12:52:03;;;;;;;8.45;3.65;;;18.30;73.70;;;;;;5006953;28;20207;-72
2022/10/13 12:54:32;;;;;;;10.93;3.65;;;19.10;73.00;;;;;;5008822;28;20266;-72
2022/10/13 12:57:03;;;;;;;6.88;2.65;;;19.80;70.20;;;;;;5009429;28;20289;-71
2022/10/13 12:59:32;;;;;;;5.50;2.78;;;19.80;69.60;;;;;;5011248;28;20322;-72
2022/10/13 13:02:01;;;;;;;5.38;2.80;;;19.60;69.40;;;;;;5023628;28;20228;-71
2022/10/13 13:04:41;;;;;;;5.20;2.83;;;19.40;68.70;;;;;;5033547;28;20190;-72
2022/10/13 13:07:32;;;;;;;6.32;2.80;;;19.10;69.40;;;;;;5033114;28;20217;-72
2022/10/13 13:10:14;;;;;;;6.43;2.75;;;18.80;69.70;;;;;;5034457;28;20194;-71
2022/10/13 13:12:42;;;;;;;5.18;3.13;;;18.50;70.00;;;;;;5032402;28;20203;-73
2022/10/13 13:15:37;;;;;;;6.43;2.95;;;18.20;70.20;;;;;;5033034;28;20206;-72
2022/10/13 13:18:29;;;;;;;4.57;2.50;;;18.00;71.10;;;;;;5031691;28;20222;-72
2022/10/13 13:20:57;;;;;;;8.38;2.53;;;17.80;71.70;;;;;;5033944;28;20269;-71
2022/10/13 13:23:32;;;;;;;7.27;3.00;;;17.70;72.10;;;;;;5013839;28;20202;-71
2022/10/13 13:26:02;;;;;;;5.82;3.00;;;17.70;72.70;;;;;;5009172;28;20198;-72
2022/10/13 13:28:31;;;;;;;6.65;3.00;;;17.60;73.00;;;;;;5007962;28;20191;-72
2022/10/13 13:30:58;;;;;;;5.87;3.10;;;17.50;73.20;;;;;;5008395;28;20340;-71
2022/10/13 13:33:25;;;;;;;9.53;3.20;;;17.50;73.20;;;;;;5007712;28;20282;-72
2022/10/13 13:35:54;;;;;;;8.37;3.07;;;17.40;73.50;;;;;;5009462;28;20205;-74
2022/10/13 13:38:21;;;;;;;9.97;3.00;;;17.40;73.60;;;;;;5007555;28;20202;-74
2022/10/13 13:40:50;;;;;;;5.03;3.03;;;17.30;73.70;;;;;;5009902;28;20212;-73
2022/10/13 13:43:17;;;;;;;6.03;2.75;;;17.20;73.80;;;;;;5007405;28;20204;-74
2022/10/13 13:45:44;;;;;;;10.97;3.00;;;17.20;74.10;;;;;;5007139;28;20203;-73
2022/10/13 13:48:12;;;;;;;8.50;2.90;;;17.20;74.50;;;;;;5005021;28;20206;-72
2022/10/13 13:50:40;;;;;;;8.17;3.00;;;17.10;74.50;;;;;;5009075;28;20720;-73
2022/10/13 13:53:07;;;;;;;9.53;3.07;;;17.10;74.70;;;;;;5008809;28;20279;-71
2022/10/13 13:55:35;;;;;;;10.87;5.43;;;17.00;74.90;;;;;;5009162;28;20293;-71
2022/10/13 13:58:05;;;;;;;18.87;8.90;;;17.00;75.10;;;;;;5006564;28;20198;-73
2022/10/13 14:00:32;;;;;;;10.17;4.87;;;17.00;75.20;;;;;;5007264;28;20184;-73
2022/10/13 14:02:59;;;;;;;6.10;3.37;;;16.90;75.40;;;;;;5006284;28;20241;-74
2022/10/13 14:05:26;;;;;;;3.97;3.27;;;16.90;75.70;;;;;;5005770;28;20207;-73